Current Weather

Habib Bourguiba Intl

Habib Bourguiba Intl, Tunisia (DTMB)

Report from: Tuesday, March 5, 2024 1:00 AM CET
Current time: Tuesday, March 5, 2024 1:39 AM CET

Nearby weather – Weather history – Daily summaries
Weather forecast

Temperature12.0°C (53.6°F)
Dew point5.0°C (41.0°F)
Winds 8 kts (4.1 m/s, 9.2 mph) West-Southwest (240°)
Clouds Sky clear
Altimeter30.03 in.Hg (1017 mB)
Relative humidity62 %
Density altitude-356 ft. (-109 m)
Remarks Ceiling and visibility OK
Flight conditions Visual Meteorological Conditions
Raw dataDTMB 050000Z 24008KT CAVOK 12/05 Q1017
An error has occurred. This application may no longer respond until reloaded. Reload 🗙